createdAt,value
2018-08-23T00:01:09.766Z,22.60
2018-08-23T00:03:38.410Z,22.60
2018-08-23T00:06:06.792Z,22.50
2018-08-23T00:08:35.032Z,22.50
2018-08-23T00:11:03.282Z,22.50
2018-08-23T00:13:36.111Z,22.50
2018-08-23T00:16:04.348Z,22.50
2018-08-23T00:18:32.668Z,22.60
2018-08-23T00:21:00.908Z,22.60
2018-08-23T00:23:29.166Z,22.50
2018-08-23T00:25:57.416Z,22.50
2018-08-23T00:28:25.616Z,22.40
2018-08-23T00:30:53.873Z,22.20
2018-08-23T00:33:22.100Z,22.00
2018-08-23T00:35:50.348Z,21.90
2018-08-23T00:38:18.592Z,22.00
2018-08-23T00:40:47.978Z,21.90
2018-08-23T00:43:16.206Z,21.90
2018-08-23T00:45:44.540Z,21.90
2018-08-23T00:48:12.769Z,21.80
2018-08-23T00:50:48.691Z,21.80
2018-08-23T00:53:17.257Z,21.70
2018-08-23T00:55:45.464Z,21.60
2018-08-23T00:58:13.701Z,21.60
2018-08-23T01:00:47.980Z,21.70
2018-08-23T01:03:16.705Z,21.70
2018-08-23T01:05:45.853Z,21.70
2018-08-23T01:08:14.368Z,21.70
2018-08-23T01:10:42.622Z,21.60
2018-08-23T01:13:10.827Z,21.50
2018-08-23T01:15:39.087Z,21.50
2018-08-23T01:18:15.687Z,21.40
2018-08-23T01:20:45.164Z,21.40
2018-08-23T01:23:13.440Z,21.40
2018-08-23T01:25:42.829Z,21.40
2018-08-23T01:28:11.204Z,21.30
2018-08-23T01:30:39.988Z,21.30
2018-08-23T01:33:11.756Z,21.30
2018-08-23T01:35:40.528Z,21.20
2018-08-23T01:38:09.041Z,21.20
2018-08-23T01:40:37.296Z,21.10
2018-08-23T01:43:05.564Z,21.10
2018-08-23T01:45:33.781Z,21.10
2018-08-23T01:48:04.316Z,21.10
2018-08-23T01:50:32.556Z,21.10
2018-08-23T01:53:00.831Z,21.10
2018-08-23T01:55:29.104Z,21.10
2018-08-23T01:57:57.333Z,20.90
2018-08-23T02:00:29.861Z,20.90
2018-08-23T02:02:58.397Z,20.90
2018-08-23T02:05:26.609Z,20.90
2018-08-23T02:07:54.836Z,20.80
2018-08-23T02:10:23.066Z,20.60
2018-08-23T02:12:54.892Z,20.60
2018-08-23T02:15:23.256Z,20.60
2018-08-23T02:17:57.145Z,20.50
2018-08-23T02:20:26.687Z,20.40
2018-08-23T02:22:55.479Z,20.40
2018-08-23T02:25:23.997Z,20.40
2018-08-23T02:28:00.125Z,20.40
2018-08-23T02:30:40.276Z,20.40
2018-08-23T02:33:09.131Z,20.40
2018-08-23T02:35:37.597Z,20.40
2018-08-23T02:38:06.168Z,20.40
2018-08-23T02:40:36.604Z,20.40
2018-08-23T02:43:04.928Z,20.40
2018-08-23T02:45:38.579Z,20.40
2018-08-23T02:48:07.785Z,20.40
2018-08-23T02:50:36.277Z,20.50
2018-08-23T02:53:20.037Z,20.40
2018-08-23T02:55:52.696Z,20.40
2018-08-23T02:58:21.672Z,20.40
2018-08-23T03:00:49.921Z,20.40
2018-08-23T03:03:18.125Z,20.40
2018-08-23T03:05:46.371Z,20.40
2018-08-23T03:08:14.581Z,20.40
2018-08-23T03:10:42.828Z,20.40
2018-08-23T03:13:11.093Z,20.40
2018-08-23T03:15:39.271Z,20.30
2018-08-23T03:18:07.476Z,20.20
2018-08-23T03:20:35.829Z,20.20
2018-08-23T03:23:04.048Z,20.10
2018-08-23T03:25:32.276Z,20.10
2018-08-23T03:28:00.497Z,20.00
2018-08-23T03:30:28.728Z,20.00
2018-08-23T03:32:56.967Z,19.70
2018-08-23T03:35:25.249Z,19.60
2018-08-23T03:37:53.452Z,19.60
2018-08-23T03:40:21.673Z,19.50
2018-08-23T03:42:49.887Z,19.50
2018-08-23T03:45:23.616Z,19.50
2018-08-23T03:47:53.849Z,19.50
2018-08-23T03:50:22.072Z,19.50
2018-08-23T03:52:51.451Z,19.50
2018-08-23T03:55:21.032Z,19.50
2018-08-23T03:57:54.737Z,19.40
2018-08-23T04:00:28.195Z,19.50
2018-08-23T04:02:59.294Z,19.50
2018-08-23T04:05:27.539Z,19.40
2018-08-23T04:07:55.768Z,19.40
2018-08-23T04:10:24.242Z,19.40
2018-08-23T04:12:52.485Z,19.40
2018-08-23T04:15:26.298Z,19.50
2018-08-23T04:17:54.469Z,19.50
2018-08-23T04:20:23.112Z,19.50
2018-08-23T04:22:51.706Z,19.40
2018-08-23T04:25:19.836Z,19.30
2018-08-23T04:27:48.095Z,19.20
2018-08-23T04:30:16.351Z,19.20
2018-08-23T04:32:48.577Z,19.20
2018-08-23T04:35:22.354Z,19.10
2018-08-23T04:37:51.082Z,19.00
2018-08-23T04:40:19.897Z,19.00
2018-08-23T04:42:48.121Z,18.80
2018-08-23T04:45:22.515Z,18.80
2018-08-23T04:47:56.606Z,18.90
2018-08-23T04:50:25.369Z,18.90
2018-08-23T04:52:53.878Z,19.00
2018-08-23T04:55:22.347Z,19.00
2018-08-23T04:57:50.581Z,19.00
2018-08-23T05:00:18.885Z,19.10
2018-08-23T05:02:48.196Z,19.10
2018-08-23T05:05:16.648Z,19.20
2018-08-23T05:07:44.928Z,19.30
2018-08-23T05:10:13.299Z,19.30
2018-08-23T05:12:41.579Z,19.40
2018-08-23T05:15:09.803Z,19.50
2018-08-23T05:17:38.077Z,19.70
2018-08-23T05:20:06.381Z,19.70
2018-08-23T05:22:34.609Z,19.80
2018-08-23T05:25:13.293Z,19.90
2018-08-23T05:27:58.340Z,19.90
2018-08-23T05:30:27.691Z,19.90
2018-08-23T05:33:00.204Z,20.00
2018-08-23T05:35:29.448Z,20.10
2018-08-23T05:37:58.970Z,20.10
2018-08-23T05:40:27.207Z,20.20
2018-08-23T05:42:56.257Z,20.20
2018-08-23T05:45:33.203Z,20.30
2018-08-23T05:48:11.037Z,20.20
2018-08-23T05:50:39.250Z,20.30
2018-08-23T05:53:07.517Z,20.40
2018-08-23T05:55:35.794Z,20.40
2018-08-23T05:58:12.667Z,20.50
2018-08-23T06:00:41.127Z,20.70
2018-08-23T06:03:09.360Z,20.80
2018-08-23T06:05:37.647Z,20.90
2018-08-23T06:08:06.148Z,20.90
2018-08-23T06:10:34.353Z,21.00
2018-08-23T06:13:02.629Z,21.20
2018-08-23T06:15:31.862Z,21.40
2018-08-23T06:18:00.370Z,21.50
2018-08-23T06:20:28.604Z,21.60
2018-08-23T06:22:56.830Z,21.80
2018-08-23T06:25:25.092Z,21.80
2018-08-23T06:27:54.661Z,21.90
2018-08-23T06:30:22.891Z,22.00
2018-08-23T06:32:55.704Z,22.20
2018-08-23T06:35:24.898Z,22.30
2018-08-23T06:37:57.138Z,22.40
2018-08-23T06:40:25.753Z,22.50
2018-08-23T06:43:02.666Z,22.80
2018-08-23T06:45:31.023Z,23.00
2018-08-23T06:47:59.742Z,23.20
2018-08-23T06:50:28.097Z,23.00
2018-08-23T06:52:56.860Z,23.00
2018-08-23T06:55:30.448Z,23.30
2018-08-23T06:58:00.232Z,23.60
2018-08-23T07:00:28.638Z,23.80
2018-08-23T07:02:57.152Z,24.00
2018-08-23T07:05:25.448Z,24.20
2018-08-23T07:07:54.884Z,24.40
2018-08-23T07:10:23.085Z,24.70
2018-08-23T07:12:51.669Z,24.90
2018-08-23T07:15:19.893Z,25.30
2018-08-23T07:17:48.217Z,25.60
2018-08-23T07:20:17.151Z,26.50
2018-08-23T07:22:45.350Z,28.20
2018-08-23T07:25:18.330Z,29.80
2018-08-23T07:27:46.611Z,31.80
2018-08-23T07:30:20.464Z,32.20
2018-08-23T07:32:49.978Z,32.10
2018-08-23T07:35:19.409Z,33.40
2018-08-23T07:37:49.966Z,34.10
2018-08-23T07:40:19.427Z,34.90
2018-08-23T07:42:48.934Z,34.80
2018-08-23T07:45:17.185Z,35.80
2018-08-23T07:47:51.848Z,36.90
2018-08-23T07:50:20.193Z,37.50
2018-08-23T07:52:49.971Z,38.30
2018-08-23T07:55:18.086Z,37.50
2018-08-23T07:57:46.634Z,38.10
2018-08-23T08:00:25.398Z,38.30
2018-08-23T08:02:54.092Z,39.50
2018-08-23T08:05:23.937Z,40.10
2018-08-23T08:07:52.197Z,38.50
2018-08-23T08:10:20.751Z,39.30
2018-08-23T08:12:51.158Z,39.90
2018-08-23T08:15:19.557Z,39.90
2018-08-23T08:17:48.681Z,41.20
2018-08-23T08:20:16.881Z,42.00
2018-08-23T08:22:45.105Z,42.90
2018-08-23T08:25:21.860Z,43.50
2018-08-23T08:27:50.768Z,43.20
2018-08-23T08:30:27.939Z,43.60
2018-08-23T08:32:56.185Z,43.70
2018-08-23T08:35:24.450Z,43.60
2018-08-23T08:37:52.821Z,43.80
2018-08-23T08:40:23.698Z,43.60
2018-08-23T08:42:51.958Z,42.60
2018-08-23T08:45:20.167Z,42.50
2018-08-23T08:47:48.530Z,42.00
2018-08-23T08:50:16.947Z,41.40
2018-08-23T08:52:45.173Z,40.80
2018-08-23T08:55:14.956Z,39.30
2018-08-23T08:57:48.515Z,39.50
2018-08-23T09:00:16.704Z,39.00
2018-08-23T09:02:45.050Z,39.50
2018-08-23T09:05:13.316Z,39.60
2018-08-23T09:07:43.699Z,39.40
2018-08-23T09:10:11.928Z,38.80
2018-08-23T09:12:45.620Z,36.70
2018-08-23T09:15:13.869Z,36.70
2018-08-23T09:17:43.903Z,37.00
2018-08-23T09:20:15.201Z,37.20
2018-08-23T09:22:48.674Z,38.00
2018-08-23T09:25:24.010Z,38.70
2018-08-23T09:27:52.482Z,39.30
2018-08-23T09:30:26.625Z,41.80
2018-08-23T09:32:55.201Z,43.20
2018-08-23T09:35:28.789Z,43.80
2018-08-23T09:37:58.350Z,45.70
2018-08-23T09:40:27.027Z,46.60
2018-08-23T09:42:55.261Z,46.60
2018-08-23T09:45:23.446Z,46.50
2018-08-23T09:47:51.713Z,43.60
2018-08-23T09:50:19.957Z,43.50
2018-08-23T09:52:50.245Z,44.40
2018-08-23T09:55:19.564Z,44.40
2018-08-23T09:57:48.246Z,44.90
2018-08-23T10:00:21.834Z,45.40
2018-08-23T10:03:54.107Z,46.60
2018-08-23T10:06:23.876Z,47.70
2018-08-23T10:09:06.456Z,45.80
2018-08-23T10:11:40.071Z,45.60
2018-08-23T10:14:13.550Z,43.40
2018-08-23T10:16:47.070Z,44.00
2018-08-23T10:19:20.757Z,43.50
2018-08-23T10:21:54.293Z,42.60
2018-08-23T10:24:24.530Z,42.70
2018-08-23T10:26:53.228Z,43.10
2018-08-23T10:29:22.148Z,43.20
2018-08-23T10:31:50.376Z,44.30
2018-08-23T10:34:18.631Z,45.20
2018-08-23T10:36:46.880Z,46.10
2018-08-23T10:39:15.099Z,47.40
2018-08-23T10:41:43.313Z,49.30
2018-08-23T10:44:11.578Z,49.70
2018-08-23T10:46:45.048Z,48.20
2018-08-23T10:49:13.234Z,46.20
2018-08-23T10:51:41.526Z,47.30
2018-08-23T10:54:09.744Z,48.30
2018-08-23T10:56:37.957Z,48.50
2018-08-23T10:59:06.266Z,47.50
2018-08-23T11:01:34.367Z,46.00
2018-08-23T11:04:06.209Z,44.30
2018-08-23T11:06:35.038Z,42.70
2018-08-23T11:09:08.805Z,40.80
2018-08-23T11:11:37.940Z,39.80
2018-08-23T11:14:11.575Z,39.30
2018-08-23T11:16:45.144Z,38.80
2018-08-23T11:19:18.655Z,38.60
2018-08-23T11:21:46.881Z,38.20
2018-08-23T11:24:15.093Z,38.20
2018-08-23T11:26:43.350Z,38.20
2018-08-23T11:29:11.626Z,38.10
2018-08-23T11:31:39.853Z,38.10
2018-08-23T11:34:08.048Z,38.90
2018-08-23T11:36:36.318Z,39.60
2018-08-23T11:39:06.312Z,40.50
2018-08-23T11:41:34.826Z,40.00
2018-08-23T11:44:03.043Z,39.30
2018-08-23T11:46:31.250Z,38.30
2018-08-23T11:48:59.485Z,37.00
2018-08-23T11:51:27.717Z,36.70
2018-08-23T11:53:55.963Z,36.60
2018-08-23T11:56:24.150Z,36.30
2018-08-23T11:58:52.590Z,36.30
2018-08-23T12:01:21.685Z,36.10
2018-08-23T12:03:49.908Z,36.10
2018-08-23T12:06:18.805Z,36.10
2018-08-23T12:08:47.568Z,36.20
2018-08-23T12:11:15.751Z,36.30
2018-08-23T12:13:45.585Z,36.00
2018-08-23T12:16:13.788Z,35.60
2018-08-23T12:18:42.037Z,35.50
2018-08-23T12:21:10.305Z,35.30
2018-08-23T12:23:38.778Z,35.30
2018-08-23T12:26:07.126Z,35.20
2018-08-23T12:28:40.667Z,35.30
2018-08-23T12:31:08.885Z,35.10
2018-08-23T12:33:37.085Z,35.10
2018-08-23T12:36:07.229Z,35.10
2018-08-23T12:38:41.009Z,35.20
2018-08-23T12:41:14.676Z,35.20
2018-08-23T12:43:48.416Z,35.10
2018-08-23T12:46:17.286Z,34.70
2018-08-23T12:48:45.837Z,34.80
2018-08-23T12:51:14.062Z,34.70
2018-08-23T12:53:42.255Z,34.70
2018-08-23T12:56:10.481Z,34.70
2018-08-23T12:58:38.749Z,34.70
2018-08-23T13:01:07.045Z,34.70
2018-08-23T13:03:35.345Z,34.70
2018-08-23T13:06:03.541Z,34.70
2018-08-23T13:08:31.758Z,34.80
2018-08-23T13:11:00.044Z,34.60
2018-08-23T13:13:28.282Z,34.60
2018-08-23T13:15:56.557Z,34.50
2018-08-23T13:18:25.731Z,34.70
2018-08-23T13:20:54.027Z,34.80
2018-08-23T13:23:22.301Z,34.90
2018-08-23T13:25:56.410Z,34.80
2018-08-23T13:28:25.516Z,35.00
2018-08-23T13:30:54.113Z,35.00
2018-08-23T13:33:22.967Z,34.70
2018-08-23T13:35:51.170Z,34.40
2018-08-23T13:38:19.772Z,34.30
2018-08-23T13:40:48.813Z,34.10
2018-08-23T13:43:17.060Z,33.90
2018-08-23T13:45:45.407Z,34.00
2018-08-23T13:48:13.709Z,33.90
2018-08-23T13:50:41.854Z,33.90
2018-08-23T13:53:10.097Z,33.80
2018-08-23T13:55:38.340Z,33.90
2018-08-23T13:58:06.558Z,33.90
2018-08-23T14:00:37.746Z,33.70
2018-08-23T14:03:06.603Z,33.70
2018-08-23T14:05:34.920Z,33.80
2018-08-23T14:08:03.148Z,33.60
2018-08-23T14:10:31.672Z,33.50
2018-08-23T14:12:59.876Z,33.40
2018-08-23T14:15:33.613Z,33.20
2018-08-23T14:18:02.099Z,33.10
2018-08-23T14:20:30.269Z,33.00
2018-08-23T14:22:58.505Z,32.70
2018-08-23T14:25:26.747Z,32.50
2018-08-23T14:27:55.507Z,32.20
2018-08-23T14:30:23.739Z,32.20
2018-08-23T14:32:51.970Z,32.20
2018-08-23T14:35:20.121Z,32.20
2018-08-23T14:37:48.333Z,32.30
2018-08-23T14:40:16.604Z,32.50
2018-08-23T14:42:44.714Z,32.50
2018-08-23T14:45:16.278Z,32.50
2018-08-23T14:47:49.813Z,32.60
2018-08-23T14:50:18.051Z,32.50
2018-08-23T14:52:46.248Z,32.30
2018-08-23T14:55:18.709Z,32.10
2018-08-23T14:57:46.945Z,32.10
2018-08-23T15:00:15.149Z,32.10
2018-08-23T15:02:43.426Z,32.10
2018-08-23T15:05:11.630Z,32.10
2018-08-23T15:07:40.027Z,32.20
2018-08-23T15:10:08.198Z,32.10
2018-08-23T15:12:36.431Z,32.20
2018-08-23T15:15:07.830Z,31.80
2018-08-23T15:17:36.198Z,31.90
2018-08-23T15:20:04.464Z,31.90
2018-08-23T15:22:32.704Z,31.90
2018-08-23T15:25:00.960Z,31.90
2018-08-23T15:27:33.922Z,31.80
2018-08-23T15:30:03.587Z,31.70
2018-08-23T15:32:31.881Z,31.60
2018-08-23T15:35:00.121Z,31.50
2018-08-23T15:37:28.442Z,31.30
2018-08-23T15:39:56.647Z,31.20
2018-08-23T15:42:24.929Z,31.10
2018-08-23T15:44:53.177Z,31.00
2018-08-23T15:47:21.410Z,31.00
2018-08-23T15:49:49.664Z,30.90
2018-08-23T15:52:17.889Z,30.80
2018-08-23T15:54:46.159Z,30.80
2018-08-23T15:57:14.378Z,30.70
2018-08-23T15:59:42.572Z,30.60
2018-08-23T16:02:10.827Z,30.50
2018-08-23T16:04:39.043Z,30.40
2018-08-23T16:07:07.265Z,30.30
2018-08-23T16:09:35.469Z,30.30
2018-08-23T16:12:03.688Z,30.10
2018-08-23T16:14:31.917Z,30.10
2018-08-23T16:18:03.092Z,29.90
2018-08-23T16:20:36.733Z,29.90
2018-08-23T16:23:04.992Z,29.70
2018-08-23T16:25:38.850Z,29.60
2018-08-23T16:28:07.129Z,29.60
2018-08-23T16:30:35.365Z,29.50
2018-08-23T16:33:03.592Z,29.50
2018-08-23T16:35:31.808Z,29.40
2018-08-23T16:38:00.022Z,29.30
2018-08-23T16:40:32.141Z,29.20
2018-08-23T16:43:01.701Z,29.20
2018-08-23T16:45:30.096Z,29.10
2018-08-23T16:47:58.293Z,28.90
2018-08-23T16:50:27.856Z,28.60
2018-08-23T16:52:56.333Z,28.50
2018-08-23T16:55:24.525Z,28.30
2018-08-23T16:57:52.715Z,28.20
2018-08-23T17:00:20.960Z,27.90
2018-08-23T17:02:49.244Z,27.80
2018-08-23T17:05:17.517Z,27.60
2018-08-23T17:07:45.784Z,27.40
2018-08-23T17:10:14.056Z,27.40
2018-08-23T17:12:42.176Z,27.20
2018-08-23T17:15:14.269Z,27.20
2018-08-23T17:17:52.744Z,27.20
2018-08-23T17:20:21.070Z,27.20
2018-08-23T17:22:49.348Z,27.10
2018-08-23T17:25:17.624Z,27.00
2018-08-23T17:27:46.172Z,26.90
2018-08-23T17:30:14.473Z,26.90
2018-08-23T17:32:42.748Z,26.80
2018-08-23T17:35:10.990Z,26.70
2018-08-23T17:37:39.217Z,26.60
2018-08-23T17:40:07.495Z,26.60
2018-08-23T17:42:41.298Z,26.50
2018-08-23T17:45:09.537Z,26.50
2018-08-23T17:47:37.816Z,26.40
2018-08-23T17:50:06.081Z,26.20
2018-08-23T17:52:34.612Z,26.10
2018-08-23T17:55:04.290Z,26.00
2018-08-23T17:57:32.474Z,25.90
2018-08-23T18:00:00.705Z,25.80
2018-08-23T18:02:28.917Z,25.70
2018-08-23T18:04:57.112Z,25.70
2018-08-23T18:07:25.329Z,25.60
2018-08-23T18:09:53.525Z,25.60
2018-08-23T18:12:21.761Z,25.60
2018-08-23T18:14:49.980Z,25.50
2018-08-23T18:17:18.136Z,25.40
2018-08-23T18:19:46.338Z,25.30
2018-08-23T18:22:14.528Z,25.20
2018-08-23T18:24:42.736Z,25.10
2018-08-23T18:27:10.922Z,25.00
2018-08-23T18:29:39.140Z,25.00
2018-08-23T18:32:07.452Z,24.70
2018-08-23T18:34:35.572Z,24.70
2018-08-23T18:37:03.770Z,24.70
2018-08-23T18:39:32.012Z,24.60
2018-08-23T18:42:00.255Z,24.60
2018-08-23T18:44:28.440Z,24.50
2018-08-23T18:46:56.616Z,24.50
2018-08-23T18:49:24.850Z,24.30
2018-08-23T18:51:53.064Z,24.30
2018-08-23T18:54:21.314Z,24.30
2018-08-23T18:56:49.460Z,24.30
2018-08-23T18:59:17.660Z,24.30
2018-08-23T19:01:45.906Z,24.20
2018-08-23T19:04:14.081Z,24.10
2018-08-23T19:06:42.305Z,24.00
2018-08-23T19:09:12.534Z,23.80
2018-08-23T19:11:40.858Z,23.70
2018-08-23T19:14:09.092Z,23.60
2018-08-23T19:16:43.638Z,23.40
2018-08-23T19:19:11.828Z,23.40
2018-08-23T19:21:40.045Z,23.50
2018-08-23T19:24:08.242Z,23.50
2018-08-23T19:26:36.452Z,23.50
2018-08-23T19:29:04.786Z,23.50
2018-08-23T19:31:33.192Z,23.40
2018-08-23T19:34:01.329Z,23.40
2018-08-23T19:36:29.893Z,23.40
2018-08-23T19:38:58.162Z,23.30
2018-08-23T19:41:26.377Z,23.30
2018-08-23T19:43:54.576Z,23.30
2018-08-23T19:46:28.101Z,23.30
2018-08-23T19:49:01.667Z,23.30
2018-08-23T19:51:29.900Z,23.30
2018-08-23T19:53:58.454Z,23.20
2018-08-23T19:56:26.608Z,23.20
2018-08-23T19:58:54.855Z,23.20
2018-08-23T20:01:23.052Z,23.10
2018-08-23T20:03:51.265Z,23.10
2018-08-23T20:06:19.528Z,23.10
2018-08-23T20:08:47.718Z,23.10
2018-08-23T20:11:15.914Z,23.00
2018-08-23T20:13:44.127Z,23.00
2018-08-23T20:16:12.314Z,23.00
2018-08-23T20:18:40.559Z,23.00
2018-08-23T20:21:08.832Z,22.90
2018-08-23T20:23:37.056Z,22.90
2018-08-23T20:26:05.287Z,22.90
2018-08-23T20:28:33.494Z,22.80
2018-08-23T20:31:01.716Z,22.70
2018-08-23T20:33:29.921Z,22.70
2018-08-23T20:35:58.105Z,22.70
2018-08-23T20:38:26.289Z,22.60
2018-08-23T20:40:54.480Z,22.60
2018-08-23T20:43:22.685Z,22.60
2018-08-23T20:45:50.881Z,22.50
2018-08-23T20:48:19.083Z,22.40
2018-08-23T20:50:47.301Z,22.40
2018-08-23T20:53:15.502Z,22.30
2018-08-23T20:55:43.712Z,22.30
2018-08-23T20:58:11.953Z,22.30
2018-08-23T21:00:40.125Z,22.30
2018-08-23T21:03:08.327Z,22.30
2018-08-23T21:05:36.508Z,22.30
2018-08-23T21:08:04.788Z,22.20
2018-08-23T21:10:32.948Z,22.20
2018-08-23T21:13:01.169Z,22.20
2018-08-23T21:15:29.376Z,22.20
2018-08-23T21:17:57.644Z,22.20
2018-08-23T21:20:25.796Z,22.20
2018-08-23T21:22:53.977Z,22.20
2018-08-23T21:25:22.146Z,22.20
2018-08-23T21:27:50.344Z,22.10
2018-08-23T21:30:18.585Z,22.10
2018-08-23T21:32:46.762Z,22.00
2018-08-23T21:35:14.909Z,22.00
2018-08-23T21:37:43.105Z,22.00
2018-08-23T21:40:11.340Z,21.90
2018-08-23T21:42:39.781Z,21.90
2018-08-23T21:45:08.022Z,21.90
2018-08-23T21:47:36.213Z,21.80
2018-08-23T21:50:04.434Z,21.80
2018-08-23T21:52:32.680Z,21.80
2018-08-23T21:55:01.184Z,21.70
2018-08-23T21:57:29.371Z,21.60
2018-08-23T21:59:57.580Z,21.60
2018-08-23T22:02:25.767Z,21.50
2018-08-23T22:04:55.221Z,21.40
2018-08-23T22:07:23.392Z,21.30
2018-08-23T22:09:52.826Z,21.30
2018-08-23T22:12:23.059Z,21.20
2018-08-23T22:14:52.249Z,21.10
2018-08-23T22:17:21.029Z,21.10
2018-08-23T22:19:49.814Z,21.10
2018-08-23T22:22:18.104Z,21.00
2018-08-23T22:24:46.278Z,21.00
2018-08-23T22:27:14.490Z,20.90
2018-08-23T22:29:42.944Z,20.90
2018-08-23T22:32:11.136Z,21.00
2018-08-23T22:34:39.316Z,21.00
2018-08-23T22:37:07.501Z,21.00
2018-08-23T22:39:35.706Z,21.00
2018-08-23T22:42:03.916Z,21.00
2018-08-23T22:44:32.128Z,20.90
2018-08-23T22:47:00.357Z,20.90
2018-08-23T22:49:28.534Z,20.90
2018-08-23T22:51:56.713Z,20.90
2018-08-23T22:54:24.882Z,21.00
2018-08-23T22:56:53.480Z,20.90
2018-08-23T22:59:21.649Z,20.90
2018-08-23T23:01:49.849Z,21.00
2018-08-23T23:04:23.468Z,21.00
2018-08-23T23:06:51.644Z,21.00
2018-08-23T23:09:19.811Z,21.00
2018-08-23T23:11:47.973Z,21.10
2018-08-23T23:14:16.150Z,21.00
2018-08-23T23:16:44.312Z,21.00
2018-08-23T23:19:12.596Z,21.10
2018-08-23T23:21:40.816Z,21.10
2018-08-23T23:24:13.232Z,21.10
2018-08-23T23:26:41.389Z,21.10
2018-08-23T23:29:09.560Z,21.10
2018-08-23T23:31:37.745Z,21.00
2018-08-23T23:34:05.924Z,21.00
2018-08-23T23:36:34.109Z,21.00
2018-08-23T23:41:30.246Z,20.90
2018-08-23T23:43:58.397Z,20.90
2018-08-23T23:46:26.577Z,20.80
2018-08-23T23:48:54.728Z,20.90
2018-08-23T23:51:22.901Z,20.90
2018-08-23T23:53:51.072Z,20.90
2018-08-23T23:56:19.253Z,20.80
2018-08-23T23:58:47.448Z,20.80
